sensor_id;sensor_type;location;lat;lon;timestamp;noise_LAeq;noise_LA_min;noise_LA_max;noise_LA01;noise_LA95
60116;Laerm;62818;49.394;8.686;2023-02-11T00:00:51;77.69;46.02;86.16;;
60116;Laerm;62818;49.394;8.686;2023-02-11T00:01:51;78.66;45.54;86.74;;
60116;Laerm;62818;49.394;8.686;2023-02-11T00:02:52;76.47;45.89;85.61;;
60116;Laerm;62818;49.394;8.686;2023-02-11T00:03:52;76.80;46.66;86.04;;
60116;Laerm;62818;49.394;8.686;2023-02-11T00:04:53;77.94;45.42;86.33;;
60116;Laerm;62818;49.394;8.686;2023-02-11T00:06:05;75.99;45.48;85.56;;
60116;Laerm;62818;49.394;8.686;2023-02-11T00:07:08;77.30;45.39;86.06;;
60116;Laerm;62818;49.394;8.686;2023-02-11T00:08:08;77.61;45.63;86.43;;
60116;Laerm;62818;49.394;8.686;2023-02-11T00:09:09;76.69;46.71;86.14;;
60116;Laerm;62818;49.394;8.686;2023-02-11T00:10:10;77.80;46.10;86.41;;
60116;Laerm;62818;49.394;8.686;2023-02-11T00:11:16;78.06;46.07;86.54;;
60116;Laerm;62818;49.394;8.686;2023-02-11T00:12:17;77.07;45.83;86.10;;
60116;Laerm;62818;49.394;8.686;2023-02-11T00:13:18;77.86;46.25;86.47;;
60116;Laerm;62818;49.394;8.686;2023-02-11T00:14:19;78.48;46.40;86.75;;
60116;Laerm;62818;49.394;8.686;2023-02-11T00:15:20;76.64;45.94;85.91;;
60116;Laerm;62818;49.394;8.686;2023-02-11T00:16:20;76.95;45.75;86.19;;
60116;Laerm;62818;49.394;8.686;2023-02-11T00:17:21;77.67;45.99;86.58;;
60116;Laerm;62818;49.394;8.686;2023-02-11T00:18:22;79.18;45.75;87.41;;
60116;Laerm;62818;49.394;8.686;2023-02-11T00:19:22;76.96;45.36;85.89;;
60116;Laerm;62818;49.394;8.686;2023-02-11T00:20:23;78.01;45.88;86.29;;
60116;Laerm;62818;49.394;8.686;2023-02-11T00:21:25;77.70;46.10;86.48;;
60116;Laerm;62818;49.394;8.686;2023-02-11T00:22:26;78.68;47.76;86.36;;
60116;Laerm;62818;49.394;8.686;2023-02-11T00:23:26;76.93;45.72;86.63;;
60116;Laerm;62818;49.394;8.686;2023-02-11T00:24:27;77.83;45.69;86.34;;
60116;Laerm;62818;49.394;8.686;2023-02-11T00:25:29;77.91;45.30;86.62;;
60116;Laerm;62818;49.394;8.686;2023-02-11T00:26:32;78.31;45.94;86.60;;
60116;Laerm;62818;49.394;8.686;2023-02-11T00:27:35;77.72;46.57;86.19;;
60116;Laerm;62818;49.394;8.686;2023-02-11T00:28:36;78.93;45.60;86.60;;
60116;Laerm;62818;49.394;8.686;2023-02-11T00:29:37;78.61;46.07;86.64;;
60116;Laerm;62818;49.394;8.686;2023-02-11T00:30:38;51.51;46.25;64.86;;
60116;Laerm;62818;49.394;8.686;2023-02-11T00:31:39;78.94;46.30;86.90;;
60116;Laerm;62818;49.394;8.686;2023-02-11T00:32:39;77.84;46.84;86.35;;
60116;Laerm;62818;49.394;8.686;2023-02-11T00:33:42;77.88;45.57;86.61;;
60116;Laerm;62818;49.394;8.686;2023-02-11T00:34:43;57.28;45.36;68.89;;
60116;Laerm;62818;49.394;8.686;2023-02-11T00:35:43;79.02;45.51;87.11;;
60116;Laerm;62818;49.394;8.686;2023-02-11T00:36:44;79.80;46.45;87.46;;
60116;Laerm;62818;49.394;8.686;2023-02-11T00:37:44;77.83;46.18;86.13;;
60116;Laerm;62818;49.394;8.686;2023-02-11T00:38:47;76.70;45.63;85.94;;
60116;Laerm;62818;49.394;8.686;2023-02-11T00:39:49;78.42;45.48;86.35;;
60116;Laerm;62818;49.394;8.686;2023-02-11T00:40:49;76.71;45.66;85.91;;
60116;Laerm;62818;49.394;8.686;2023-02-11T00:41:50;77.52;46.30;86.31;;
60116;Laerm;62818;49.394;8.686;2023-02-11T00:42:50;77.65;45.66;86.49;;
60116;Laerm;62818;49.394;8.686;2023-02-11T00:43:51;76.87;46.69;86.05;;
60116;Laerm;62818;49.394;8.686;2023-02-11T00:44:52;76.93;46.13;85.49;;
60116;Laerm;62818;49.394;8.686;2023-02-11T00:45:52;76.62;46.20;85.72;;
60116;Laerm;62818;49.394;8.686;2023-02-11T00:46:53;77.47;45.89;86.00;;
60116;Laerm;62818;49.394;8.686;2023-02-11T00:47:53;77.61;45.80;86.36;;
60116;Laerm;62818;49.394;8.686;2023-02-11T00:48:54;77.33;45.80;86.42;;
60116;Laerm;62818;49.394;8.686;2023-02-11T00:49:56;76.82;46.07;86.04;;
60116;Laerm;62818;49.394;8.686;2023-02-11T00:50:57;77.83;46.25;86.94;;
60116;Laerm;62818;49.394;8.686;2023-02-11T00:51:58;77.57;45.48;86.13;;
60116;Laerm;62818;49.394;8.686;2023-02-11T00:52:58;77.57;45.54;86.04;;
60116;Laerm;62818;49.394;8.686;2023-02-11T00:53:59;77.20;45.33;86.01;;
60116;Laerm;62818;49.394;8.686;2023-02-11T00:54:59;77.67;45.75;86.76;;
60116;Laerm;62818;49.394;8.686;2023-02-11T00:56:00;77.44;45.60;86.14;;
60116;Laerm;62818;49.394;8.686;2023-02-11T00:57:00;77.74;45.77;86.71;;
60116;Laerm;62818;49.394;8.686;2023-02-11T00:58:01;77.38;45.14;86.82;;
60116;Laerm;62818;49.394;8.686;2023-02-11T00:59:02;77.79;45.86;86.65;;
60116;Laerm;62818;49.394;8.686;2023-02-11T01:00:05;77.58;46.23;86.36;;
60116;Laerm;62818;49.394;8.686;2023-02-11T01:01:06;77.62;45.75;85.74;;
60116;Laerm;62818;49.394;8.686;2023-02-11T01:02:07;77.01;46.35;85.89;;
60116;Laerm;62818;49.394;8.686;2023-02-11T01:03:07;77.25;46.32;86.02;;
60116;Laerm;62818;49.394;8.686;2023-02-11T01:04:08;78.23;46.10;86.68;;
60116;Laerm;62818;49.394;8.686;2023-02-11T01:05:09;76.53;46.40;86.52;;
60116;Laerm;62818;49.394;8.686;2023-02-11T01:06:09;76.91;46.10;85.86;;
60116;Laerm;62818;49.394;8.686;2023-02-11T01:07:10;78.41;46.05;86.48;;
60116;Laerm;62818;49.394;8.686;2023-02-11T01:08:11;77.30;46.01;86.54;;
60116;Laerm;62818;49.394;8.686;2023-02-11T01:09:11;77.21;45.72;86.02;;
60116;Laerm;62818;49.394;8.686;2023-02-11T01:10:12;76.46;45.94;85.82;;
60116;Laerm;62818;49.394;8.686;2023-02-11T01:11:18;77.57;45.80;86.15;;
60116;Laerm;62818;49.394;8.686;2023-02-11T01:12:19;76.76;45.83;85.74;;
60116;Laerm;62818;49.394;8.686;2023-02-11T01:13:20;77.24;46.28;85.93;;
60116;Laerm;62818;49.394;8.686;2023-02-11T01:14:21;78.71;45.57;86.71;;
60116;Laerm;62818;49.394;8.686;2023-02-11T01:15:21;76.54;45.77;85.43;;
60116;Laerm;62818;49.394;8.686;2023-02-11T01:16:22;77.31;46.10;86.50;;
60116;Laerm;62818;49.394;8.686;2023-02-11T01:17:22;76.88;47.42;86.04;;
60116;Laerm;62818;49.394;8.686;2023-02-11T01:18:24;77.05;48.63;85.77;;
60116;Laerm;62818;49.394;8.686;2023-02-11T01:19:24;77.61;45.77;85.97;;
60116;Laerm;62818;49.394;8.686;2023-02-11T01:20:29;77.53;46.28;86.31;;
60116;Laerm;62818;49.394;8.686;2023-02-11T01:21:30;77.83;45.48;86.42;;
60116;Laerm;62818;49.394;8.686;2023-02-11T01:22:30;79.73;45.04;87.66;;
60116;Laerm;62818;49.394;8.686;2023-02-11T01:23:31;78.57;45.07;86.73;;
60116;Laerm;62818;49.394;8.686;2023-02-11T01:24:32;78.25;45.89;86.61;;
60116;Laerm;62818;49.394;8.686;2023-02-11T01:25:32;77.36;45.42;86.24;;
60116;Laerm;62818;49.394;8.686;2023-02-11T01:26:33;76.95;45.86;85.75;;
60116;Laerm;62818;49.394;8.686;2023-02-11T01:27:33;77.41;45.83;86.41;;
60116;Laerm;62818;49.394;8.686;2023-02-11T01:28:33;79.36;45.60;87.62;;
60116;Laerm;62818;49.394;8.686;2023-02-11T01:29:34;78.75;45.75;86.49;;
60116;Laerm;62818;49.394;8.686;2023-02-11T01:30:34;77.96;45.60;86.62;;
60116;Laerm;62818;49.394;8.686;2023-02-11T01:31:35;79.13;47.14;87.08;;
60116;Laerm;62818;49.394;8.686;2023-02-11T01:32:35;78.41;46.07;86.35;;
60116;Laerm;62818;49.394;8.686;2023-02-11T01:33:36;78.81;46.15;87.15;;
60116;Laerm;62818;49.394;8.686;2023-02-11T01:34:36;78.10;46.10;86.27;;
60116;Laerm;62818;49.394;8.686;2023-02-11T01:35:38;76.97;45.60;85.74;;
60116;Laerm;62818;49.394;8.686;2023-02-11T01:36:39;78.20;45.60;87.05;;
60116;Laerm;62818;49.394;8.686;2023-02-11T01:37:40;77.87;45.80;86.54;;
60116;Laerm;62818;49.394;8.686;2023-02-11T01:38:41;77.35;45.60;85.96;;
60116;Laerm;62818;49.394;8.686;2023-02-11T01:39:43;78.22;45.36;86.20;;
60116;Laerm;62818;49.394;8.686;2023-02-11T01:40:57;77.80;45.51;86.82;;
60116;Laerm;62818;49.394;8.686;2023-02-11T01:41:58;78.74;45.45;86.43;;
60116;Laerm;62818;49.394;8.686;2023-02-11T01:42:59;77.99;45.86;86.93;;
60116;Laerm;62818;49.394;8.686;2023-02-11T01:44:37;77.37;45.48;87.97;;
60116;Laerm;62818;49.394;8.686;2023-02-11T01:46:46;77.34;45.42;86.38;;
60116;Laerm;62818;49.394;8.686;2023-02-11T01:47:46;78.18;45.39;86.67;;
60116;Laerm;62818;49.394;8.686;2023-02-11T01:48:54;76.96;45.51;86.23;;
60116;Laerm;62818;49.394;8.686;2023-02-11T01:49:58;77.39;45.69;86.47;;
60116;Laerm;62818;49.394;8.686;2023-02-11T01:51:09;79.62;45.48;88.27;;
60116;Laerm;62818;49.394;8.686;2023-02-11T01:53:24;78.56;45.97;86.98;;
60116;Laerm;62818;49.394;8.686;2023-02-11T01:54:48;76.85;45.42;86.66;;
60116;Laerm;62818;49.394;8.686;2023-02-11T01:56:10;76.79;45.42;86.44;;
60116;Laerm;62818;49.394;8.686;2023-02-11T01:57:33;76.33;45.17;86.57;;
60116;Laerm;62818;49.394;8.686;2023-02-11T01:58:38;77.10;45.39;86.10;;
60116;Laerm;62818;49.394;8.686;2023-02-11T02:00:19;76.31;45.11;86.79;;
60116;Laerm;62818;49.394;8.686;2023-02-11T02:01:25;78.04;45.54;87.18;;
60116;Laerm;62818;49.394;8.686;2023-02-11T02:02:55;77.80;45.33;86.83;;
60116;Laerm;62818;49.394;8.686;2023-02-11T02:04:00;78.12;45.75;87.43;;
60116;Laerm;62818;49.394;8.686;2023-02-11T02:07:09;75.75;45.89;86.47;;
60116;Laerm;62818;49.394;8.686;2023-02-11T02:09:28;77.05;46.10;86.46;;
60116;Laerm;62818;49.394;8.686;2023-02-11T02:10:34;77.83;46.55;86.87;;
60116;Laerm;62818;49.394;8.686;2023-02-11T02:11:36;79.85;45.77;87.58;;
60116;Laerm;62818;49.394;8.686;2023-02-11T02:12:37;77.47;45.91;86.36;;
60116;Laerm;62818;49.394;8.686;2023-02-11T02:13:37;78.08;46.02;86.85;;
60116;Laerm;62818;49.394;8.686;2023-02-11T02:14:41;77.09;45.30;85.97;;
60116;Laerm;62818;49.394;8.686;2023-02-11T02:15:52;76.87;45.77;86.15;;
60116;Laerm;62818;49.394;8.686;2023-02-11T02:16:54;79.96;45.48;88.08;;
60116;Laerm;62818;49.394;8.686;2023-02-11T02:17:58;77.61;45.89;86.50;;
60116;Laerm;62818;49.394;8.686;2023-02-11T02:20:55;75.50;45.54;86.70;;
60116;Laerm;62818;49.394;8.686;2023-02-11T02:23:00;76.07;45.97;86.84;;
60116;Laerm;62818;49.394;8.686;2023-02-11T02:26:25;76.01;45.94;86.74;;
60116;Laerm;62818;49.394;8.686;2023-02-11T02:35:00;50.97;45.27;64.50;;
60116;Laerm;62818;49.394;8.686;2023-02-11T02:36:12;78.86;45.45;87.87;;
60116;Laerm;62818;49.394;8.686;2023-02-11T02:37:26;80.08;45.73;88.57;;
60116;Laerm;62818;49.394;8.686;2023-02-11T02:38:43;77.27;45.17;86.81;;
60116;Laerm;62818;49.394;8.686;2023-02-11T02:39:49;78.40;44.97;86.84;;
60116;Laerm;62818;49.394;8.686;2023-02-11T02:41:09;77.39;45.77;86.67;;
60116;Laerm;62818;49.394;8.686;2023-02-11T02:42:11;78.49;45.89;86.63;;
60116;Laerm;62818;49.394;8.686;2023-02-11T02:43:15;79.15;45.60;86.85;;
60116;Laerm;62818;49.394;8.686;2023-02-11T02:44:17;80.21;46.10;88.01;;
60116;Laerm;62818;49.394;8.686;2023-02-11T02:45:19;78.14;46.25;86.55;;
60116;Laerm;62818;49.394;8.686;2023-02-11T02:46:30;78.45;45.86;87.01;;
60116;Laerm;62818;49.394;8.686;2023-02-11T02:47:31;80.27;45.51;88.49;;
60116;Laerm;62818;49.394;8.686;2023-02-11T02:48:32;79.26;45.48;87.34;;
60116;Laerm;62818;49.394;8.686;2023-02-11T02:49:35;78.07;46.86;86.86;;
60116;Laerm;62818;49.394;8.686;2023-02-11T02:50:36;78.36;45.63;86.50;;
60116;Laerm;62818;49.394;8.686;2023-02-11T02:53:31;79.20;45.17;88.21;;
60116;Laerm;62818;49.394;8.686;2023-02-11T03:01:48;75.92;45.17;86.49;;
60116;Laerm;62818;49.394;8.686;2023-02-11T03:06:11;76.44;45.72;86.53;;
60116;Laerm;62818;49.394;8.686;2023-02-11T03:08:53;79.16;45.39;88.26;;
60116;Laerm;62818;49.394;8.686;2023-02-11T03:10:05;77.32;44.97;86.31;;
60116;Laerm;62818;49.394;8.686;2023-02-11T03:11:10;80.79;45.39;88.84;;
60116;Laerm;62818;49.394;8.686;2023-02-11T03:12:12;80.98;45.80;88.65;;
60116;Laerm;62818;49.394;8.686;2023-02-11T03:13:17;78.46;46.05;86.77;;
60116;Laerm;62818;49.394;8.686;2023-02-11T03:14:20;78.94;46.38;86.87;;
60116;Laerm;62818;49.394;8.686;2023-02-11T03:15:27;80.24;46.38;88.16;;
60116;Laerm;62818;49.394;8.686;2023-02-11T03:16:30;78.50;45.66;86.60;;
60116;Laerm;62818;49.394;8.686;2023-02-11T03:17:41;77.56;45.25;87.04;;
60116;Laerm;62818;49.394;8.686;2023-02-11T03:18:54;79.07;44.97;87.44;;
60116;Laerm;62818;49.394;8.686;2023-02-11T03:19:57;54.41;45.51;65.49;;
60116;Laerm;62818;49.394;8.686;2023-02-11T03:21:01;79.97;45.45;87.81;;
60116;Laerm;62818;49.394;8.686;2023-02-11T03:22:07;80.60;45.17;88.29;;
60116;Laerm;62818;49.394;8.686;2023-02-11T03:23:22;79.58;45.14;87.97;;
60116;Laerm;62818;49.394;8.686;2023-02-11T03:24:36;79.22;45.14;87.92;;
60116;Laerm;62818;49.394;8.686;2023-02-11T03:25:58;78.83;47.12;87.60;;
60116;Laerm;62818;49.394;8.686;2023-02-11T03:27:22;78.74;45.94;88.11;;
60116;Laerm;62818;49.394;8.686;2023-02-11T03:28:33;79.30;45.14;87.50;;
60116;Laerm;62818;49.394;8.686;2023-02-11T03:31:16;79.12;44.76;88.32;;
60116;Laerm;62818;49.394;8.686;2023-02-11T03:32:30;79.30;45.45;87.53;;
60116;Laerm;62818;49.394;8.686;2023-02-11T03:33:45;79.47;45.94;87.81;;
60116;Laerm;62818;49.394;8.686;2023-02-11T03:34:56;79.02;46.23;87.57;;
60116;Laerm;62818;49.394;8.686;2023-02-11T03:36:27;77.87;46.02;87.12;;
60116;Laerm;62818;49.394;8.686;2023-02-11T03:37:32;51.75;46.76;59.24;;
60116;Laerm;62818;49.394;8.686;2023-02-11T03:38:38;80.52;46.64;88.40;;
60116;Laerm;62818;49.394;8.686;2023-02-11T03:39:54;80.19;46.07;88.46;;
60116;Laerm;62818;49.394;8.686;2023-02-11T03:40:58;80.49;46.97;88.09;;
60116;Laerm;62818;49.394;8.686;2023-02-11T03:42:02;80.56;45.57;88.13;;
60116;Laerm;62818;49.394;8.686;2023-02-11T03:43:16;80.35;44.90;88.67;;
60116;Laerm;62818;49.394;8.686;2023-02-11T03:44:19;80.08;45.36;88.10;;
60116;Laerm;62818;49.394;8.686;2023-02-11T03:45:24;79.63;45.97;87.68;;
60116;Laerm;62818;49.394;8.686;2023-02-11T03:46:36;79.22;45.39;87.72;;
60116;Laerm;62818;49.394;8.686;2023-02-11T03:47:45;80.14;45.89;88.06;;
60116;Laerm;62818;49.394;8.686;2023-02-11T03:49:00;78.82;45.63;87.54;;
60116;Laerm;62818;49.394;8.686;2023-02-11T03:50:05;80.19;46.28;88.18;;
60116;Laerm;62818;49.394;8.686;2023-02-11T03:51:11;78.36;45.80;86.73;;
60116;Laerm;62818;49.394;8.686;2023-02-11T03:52:14;78.22;45.86;86.88;;
60116;Laerm;62818;49.394;8.686;2023-02-11T03:53:19;77.96;45.54;87.05;;
60116;Laerm;62818;49.394;8.686;2023-02-11T03:54:29;80.09;46.25;88.11;;
60116;Laerm;62818;49.394;8.686;2023-02-11T03:55:36;80.39;45.86;88.04;;
60116;Laerm;62818;49.394;8.686;2023-02-11T03:56:49;80.01;45.69;88.06;;
60116;Laerm;62818;49.394;8.686;2023-02-11T03:57:51;80.40;45.80;88.04;;
60116;Laerm;62818;49.394;8.686;2023-02-11T03:58:51;78.26;45.57;86.51;;
60116;Laerm;62818;49.394;8.686;2023-02-11T03:59:56;80.22;45.51;88.30;;
60116;Laerm;62818;49.394;8.686;2023-02-11T04:00:57;78.85;47.98;86.63;;
60116;Laerm;62818;49.394;8.686;2023-02-11T04:01:58;78.24;45.14;86.67;;
60116;Laerm;62818;49.394;8.686;2023-02-11T04:02:58;78.93;45.99;86.68;;
60116;Laerm;62818;49.394;8.686;2023-02-11T04:03:59;80.71;46.30;88.64;;
60116;Laerm;62818;49.394;8.686;2023-02-11T04:05:00;80.76;46.30;88.68;;
60116;Laerm;62818;49.394;8.686;2023-02-11T04:06:01;80.08;38.67;88.07;;
60116;Laerm;62818;49.394;8.686;2023-02-11T04:07:01;79.49;43.49;87.49;;
60116;Laerm;62818;49.394;8.686;2023-02-11T04:08:02;78.03;43.58;86.54;;
60116;Laerm;62818;49.394;8.686;2023-02-11T04:09:03;78.44;44.19;86.59;;
60116;Laerm;62818;49.394;8.686;2023-02-11T04:10:05;79.35;43.58;87.57;;
60116;Laerm;62818;49.394;8.686;2023-02-11T04:11:05;54.64;43.86;67.36;;
60116;Laerm;62818;49.394;8.686;2023-02-11T04:12:06;77.99;43.94;86.75;;
60116;Laerm;62818;49.394;8.686;2023-02-11T04:13:07;80.38;45.69;87.80;;
60116;Laerm;62818;49.394;8.686;2023-02-11T04:14:07;78.14;45.30;86.64;;
60116;Laerm;62818;49.394;8.686;2023-02-11T04:15:08;79.35;45.39;87.42;;
60116;Laerm;62818;49.394;8.686;2023-02-11T04:16:09;79.27;44.87;87.09;;
60116;Laerm;62818;49.394;8.686;2023-02-11T04:17:11;78.44;45.14;86.53;;
60116;Laerm;62818;49.394;8.686;2023-02-11T04:18:12;78.95;45.23;86.80;;
60116;Laerm;62818;49.394;8.686;2023-02-11T04:19:12;80.14;46.91;88.13;;
60116;Laerm;62818;49.394;8.686;2023-02-11T04:20:13;80.93;46.18;88.50;;
60116;Laerm;62818;49.394;8.686;2023-02-11T04:21:13;80.31;45.17;88.44;;
60116;Laerm;62818;49.394;8.686;2023-02-11T04:22:14;80.05;44.76;88.04;;
60116;Laerm;62818;49.394;8.686;2023-02-11T04:23:14;79.46;45.04;87.98;;
60116;Laerm;62818;49.394;8.686;2023-02-11T04:24:15;78.19;44.69;87.10;;
60116;Laerm;62818;49.394;8.686;2023-02-11T04:25:15;77.95;41.75;86.57;;
60116;Laerm;62818;49.394;8.686;2023-02-11T04:26:16;78.22;32.93;86.48;;
60116;Laerm;62818;49.394;8.686;2023-02-11T04:27:16;79.67;43.39;87.92;;
60116;Laerm;62818;49.394;8.686;2023-02-11T04:28:17;79.83;43.54;88.03;;
60116;Laerm;62818;49.394;8.686;2023-02-11T04:29:17;78.00;43.86;86.57;;
60116;Laerm;62818;49.394;8.686;2023-02-11T04:30:18;80.43;43.97;88.30;;
60116;Laerm;62818;49.394;8.686;2023-02-11T04:31:19;79.75;43.86;88.09;;
60116;Laerm;62818;49.394;8.686;2023-02-11T04:32:19;78.38;44.65;86.82;;
60116;Laerm;62818;49.394;8.686;2023-02-11T04:33:20;80.45;43.29;88.47;;
60116;Laerm;62818;49.394;8.686;2023-02-11T04:34:21;79.42;43.09;87.61;;
60116;Laerm;62818;49.394;8.686;2023-02-11T04:35:21;79.78;43.44;88.04;;
60116;Laerm;62818;49.394;8.686;2023-02-11T04:36:22;78.54;43.29;86.89;;
60116;Laerm;62818;49.394;8.686;2023-02-11T04:37:22;80.28;43.72;88.31;;
60116;Laerm;62818;49.394;8.686;2023-02-11T04:38:23;80.39;43.58;88.22;;
60116;Laerm;62818;49.394;8.686;2023-02-11T04:39:23;79.78;43.04;88.00;;
60116;Laerm;62818;49.394;8.686;2023-02-11T04:40:24;80.36;42.76;88.27;;
60116;Laerm;62818;49.394;8.686;2023-02-11T04:41:24;80.26;44.87;88.21;;
60116;Laerm;62818;49.394;8.686;2023-02-11T04:42:25;80.37;43.68;88.21;;
60116;Laerm;62818;49.394;8.686;2023-02-11T04:43:25;80.75;44.07;88.71;;
60116;Laerm;62818;49.394;8.686;2023-02-11T04:44:26;78.83;44.35;87.16;;
60116;Laerm;62818;49.394;8.686;2023-02-11T04:45:26;78.77;44.07;87.07;;
60116;Laerm;62818;49.394;8.686;2023-02-11T04:46:27;78.28;44.83;86.93;;
60116;Laerm;62818;49.394;8.686;2023-02-11T04:47:27;79.66;43.58;88.07;;
60116;Laerm;62818;49.394;8.686;2023-02-11T04:48:28;78.91;44.11;86.89;;
60116;Laerm;62818;49.394;8.686;2023-02-11T04:49:28;79.14;44.51;87.50;;
60116;Laerm;62818;49.394;8.686;2023-02-11T04:50:29;78.02;43.24;87.05;;
60116;Laerm;62818;49.394;8.686;2023-02-11T04:51:30;78.33;43.04;86.94;;
60116;Laerm;62818;49.394;8.686;2023-02-11T04:52:31;80.15;43.19;88.08;;
60116;Laerm;62818;49.394;8.686;2023-02-11T04:53:31;80.24;43.49;88.30;;
60116;Laerm;62818;49.394;8.686;2023-02-11T04:54:32;79.18;42.76;87.66;;
60116;Laerm;62818;49.394;8.686;2023-02-11T04:55:32;77.62;43.34;87.01;;
60116;Laerm;62818;49.394;8.686;2023-02-11T04:56:33;80.58;43.54;88.16;;
60116;Laerm;62818;49.394;8.686;2023-02-11T04:57:34;80.51;43.54;88.28;;
60116;Laerm;62818;49.394;8.686;2023-02-11T04:58:34;80.03;42.93;88.26;;
60116;Laerm;62818;49.394;8.686;2023-02-11T04:59:35;79.49;46.35;87.38;;
60116;Laerm;62818;49.394;8.686;2023-02-11T05:00:35;80.22;45.27;88.24;;
60116;Laerm;62818;49.394;8.686;2023-02-11T05:01:35;79.60;46.20;87.49;;
60116;Laerm;62818;49.394;8.686;2023-02-11T05:02:36;79.52;46.13;87.69;;
60116;Laerm;62818;49.394;8.686;2023-02-11T05:03:38;77.52;46.45;86.80;;
60116;Laerm;62818;49.394;8.686;2023-02-11T05:04:39;80.21;45.83;87.88;;
60116;Laerm;62818;49.394;8.686;2023-02-11T05:05:41;80.22;46.07;88.16;;
60116;Laerm;62818;49.394;8.686;2023-02-11T05:06:42;80.81;45.98;88.23;;
60116;Laerm;62818;49.394;8.686;2023-02-11T05:07:42;79.53;45.80;87.48;;
60116;Laerm;62818;49.394;8.686;2023-02-11T05:08:43;79.99;45.89;87.86;;
60116;Laerm;62818;49.394;8.686;2023-02-11T05:09:43;78.20;46.33;86.45;;
60116;Laerm;62818;49.394;8.686;2023-02-11T05:10:47;79.95;46.48;88.40;;
60116;Laerm;62818;49.394;8.686;2023-02-11T05:11:48;80.86;46.10;88.06;;
60116;Laerm;62818;49.394;8.686;2023-02-11T05:12:49;80.45;46.59;88.10;;
60116;Laerm;62818;49.394;8.686;2023-02-11T05:13:50;80.67;46.69;88.38;;
60116;Laerm;62818;49.394;8.686;2023-02-11T05:14:51;80.48;46.40;88.09;;
60116;Laerm;62818;49.394;8.686;2023-02-11T05:15:52;79.80;46.69;88.00;;
60116;Laerm;62818;49.394;8.686;2023-02-11T05:16:53;78.01;47.17;86.62;;
60116;Laerm;62818;49.394;8.686;2023-02-11T05:17:54;80.54;46.98;88.08;;
60116;Laerm;62818;49.394;8.686;2023-02-11T05:18:55;78.09;46.28;86.51;;
60116;Laerm;62818;49.394;8.686;2023-02-11T05:19:56;77.86;45.91;86.68;;
60116;Laerm;62818;49.394;8.686;2023-02-11T05:20:56;79.92;46.02;87.95;;
60116;Laerm;62818;49.394;8.686;2023-02-11T05:21:57;80.14;46.43;88.00;;
60116;Laerm;62818;49.394;8.686;2023-02-11T05:22:57;80.28;46.82;88.08;;
60116;Laerm;62818;49.394;8.686;2023-02-11T05:23:58;80.20;46.55;87.90;;
60116;Laerm;62818;49.394;8.686;2023-02-11T05:24:58;79.92;46.05;87.85;;
60116;Laerm;62818;49.394;8.686;2023-02-11T05:25:59;80.55;46.15;88.38;;
60116;Laerm;62818;49.394;8.686;2023-02-11T05:27:00;80.33;47.38;88.15;;
60116;Laerm;62818;49.394;8.686;2023-02-11T05:28:02;80.36;47.44;88.67;;
60116;Laerm;62818;49.394;8.686;2023-02-11T05:29:02;54.48;46.38;65.42;;
60116;Laerm;62818;49.394;8.686;2023-02-11T05:30:04;79.81;47.26;87.61;;
60116;Laerm;62818;49.394;8.686;2023-02-11T05:31:05;79.84;45.83;87.80;;
60116;Laerm;62818;49.394;8.686;2023-02-11T05:32:06;78.17;46.30;86.44;;
60116;Laerm;62818;49.394;8.686;2023-02-11T05:33:08;78.79;47.52;87.21;;
60116;Laerm;62818;49.394;8.686;2023-02-11T05:34:08;78.87;45.72;86.66;;
60116;Laerm;62818;49.394;8.686;2023-02-11T05:35:09;78.88;46.33;86.89;;
60116;Laerm;62818;49.394;8.686;2023-02-11T05:36:12;79.91;45.99;87.94;;
60116;Laerm;62818;49.394;8.686;2023-02-11T05:37:13;79.63;45.63;87.31;;
60116;Laerm;62818;49.394;8.686;2023-02-11T05:38:16;79.44;46.52;87.39;;
60116;Laerm;62818;49.394;8.686;2023-02-11T05:39:17;78.38;46.45;86.55;;
60116;Laerm;62818;49.394;8.686;2023-02-11T05:40:17;78.01;46.38;86.59;;
60116;Laerm;62818;49.394;8.686;2023-02-11T05:41:18;78.99;46.02;87.65;;
60116;Laerm;62818;49.394;8.686;2023-02-11T05:42:18;78.06;47.00;87.21;;
60116;Laerm;62818;49.394;8.686;2023-02-11T05:43:18;80.31;47.08;88.00;;
60116;Laerm;62818;49.394;8.686;2023-02-11T05:44:19;79.66;46.20;87.82;;
60116;Laerm;62818;49.394;8.686;2023-02-11T05:45:20;80.54;46.91;88.34;;
60116;Laerm;62818;49.394;8.686;2023-02-11T05:46:20;80.18;46.91;88.09;;
60116;Laerm;62818;49.394;8.686;2023-02-11T05:47:21;79.26;47.50;86.96;;
60116;Laerm;62818;49.394;8.686;2023-02-11T05:48:21;78.40;47.54;86.57;;
60116;Laerm;62818;49.394;8.686;2023-02-11T05:49:22;78.89;49.00;86.82;;
60116;Laerm;62818;49.394;8.686;2023-02-11T05:50:23;77.79;47.40;86.67;;
60116;Laerm;62818;49.394;8.686;2023-02-11T05:51:23;78.30;47.16;86.57;;
60116;Laerm;62818;49.394;8.686;2023-02-11T05:52:24;78.82;48.96;87.18;;
60116;Laerm;62818;49.394;8.686;2023-02-11T05:53:25;77.84;46.30;86.72;;
60116;Laerm;62818;49.394;8.686;2023-02-11T05:54:25;80.07;46.97;87.88;;
60116;Laerm;62818;49.394;8.686;2023-02-11T05:55:26;78.08;46.25;86.64;;
60116;Laerm;62818;49.394;8.686;2023-02-11T05:56:26;79.38;47.70;87.32;;
60116;Laerm;62818;49.394;8.686;2023-02-11T05:57:27;78.92;47.81;86.95;;
60116;Laerm;62818;49.394;8.686;2023-02-11T05:58:27;78.97;47.12;86.91;;
60116;Laerm;62818;49.394;8.686;2023-02-11T05:59:28;80.32;47.48;88.15;;
60116;Laerm;62818;49.394;8.686;2023-02-11T06:00:28;77.86;48.52;86.68;;
60116;Laerm;62818;49.394;8.686;2023-02-11T06:01:29;77.61;46.30;86.81;;
60116;Laerm;62818;49.394;8.686;2023-02-11T06:02:29;78.55;47.28;86.60;;
60116;Laerm;62818;49.394;8.686;2023-02-11T06:03:30;78.90;50.16;87.13;;
60116;Laerm;62818;49.394;8.686;2023-02-11T06:04:30;78.71;47.12;86.54;;
60116;Laerm;62818;49.394;8.686;2023-02-11T06:05:31;77.52;47.59;86.47;;
60116;Laerm;62818;49.394;8.686;2023-02-11T06:06:32;78.34;48.26;86.74;;
60116;Laerm;62818;49.394;8.686;2023-02-11T06:07:33;77.93;47.34;86.58;;
60116;Laerm;62818;49.394;8.686;2023-02-11T06:08:33;77.97;47.22;86.43;;
60116;Laerm;62818;49.394;8.686;2023-02-11T06:09:35;79.54;47.91;87.48;;
60116;Laerm;62818;49.394;8.686;2023-02-11T06:10:35;78.81;47.06;87.09;;
60116;Laerm;62818;49.394;8.686;2023-02-11T06:11:36;80.15;47.28;87.98;;
60116;Laerm;62818;49.394;8.686;2023-02-11T06:12:37;79.28;47.18;87.48;;
60116;Laerm;62818;49.394;8.686;2023-02-11T06:13:38;80.36;47.63;88.17;;
60116;Laerm;62818;49.394;8.686;2023-02-11T06:14:38;80.02;47.40;88.00;;
60116;Laerm;62818;49.394;8.686;2023-02-11T06:15:39;80.07;47.10;88.00;;
60116;Laerm;62818;49.394;8.686;2023-02-11T06:16:39;80.12;46.45;88.48;;
60116;Laerm;62818;49.394;8.686;2023-02-11T06:17:40;77.87;48.32;86.46;;
60116;Laerm;62818;49.394;8.686;2023-02-11T06:18:40;80.74;48.29;88.59;;
60116;Laerm;62818;49.394;8.686;2023-02-11T06:19:41;80.24;47.72;88.12;;
60116;Laerm;62818;49.394;8.686;2023-02-11T06:20:41;78.36;47.14;86.43;;
60116;Laerm;62818;49.394;8.686;2023-02-11T06:21:42;78.99;47.20;86.96;;
60116;Laerm;62818;49.394;8.686;2023-02-11T06:22:42;80.19;47.22;88.33;;
60116;Laerm;62818;49.394;8.686;2023-02-11T06:23:43;80.28;46.89;88.17;;
60116;Laerm;62818;49.394;8.686;2023-02-11T06:24:43;78.23;49.11;87.08;;
60116;Laerm;62818;49.394;8.686;2023-02-11T06:25:44;80.51;47.70;88.07;;
60116;Laerm;62818;49.394;8.686;2023-02-11T06:26:44;77.97;46.82;86.79;;